sensor_id;sensor_type;location;lat;lon;timestamp;pressure;altitude;pressure_sealevel;temperature;humidity
49877;BME280;35771;48.978;9.294;2022-10-31T00:00:56;99488.31;;;9.23;100.00
49877;BME280;35771;48.978;9.294;2022-10-31T00:03:23;99469.34;;;9.14;100.00
49877;BME280;35771;48.978;9.294;2022-10-31T00:05:51;99491.69;;;9.16;100.00
49877;BME280;35771;48.978;9.294;2022-10-31T00:08:18;99470.16;;;8.98;100.00
49877;BME280;35771;48.978;9.294;2022-10-31T00:10:45;99484.56;;;9.07;100.00
49877;BME280;35771;48.978;9.294;2022-10-31T00:13:13;99461.47;;;8.86;100.00
49877;BME280;35771;48.978;9.294;2022-10-31T00:15:42;99456.91;;;8.71;100.00
49877;BME280;35771;48.978;9.294;2022-10-31T00:18:09;99468.94;;;8.84;100.00
49877;BME280;35771;48.978;9.294;2022-10-31T00:20:36;99465.41;;;8.84;100.00
49877;BME280;35771;48.978;9.294;2022-10-31T00:23:03;99466.38;;;8.66;100.00
49877;BME280;35771;48.978;9.294;2022-10-31T00:25:34;99464.97;;;8.54;100.00
49877;BME280;35771;48.978;9.294;2022-10-31T00:28:01;99482.28;;;8.70;100.00
49877;BME280;35771;48.978;9.294;2022-10-31T00:30:27;99484.34;;;8.76;100.00
49877;BME280;35771;48.978;9.294;2022-10-31T00:32:55;99486.88;;;8.69;100.00
49877;BME280;35771;48.978;9.294;2022-10-31T00:35:22;99467.03;;;8.60;100.00
49877;BME280;35771;48.978;9.294;2022-10-31T00:37:48;99486.53;;;8.72;100.00
49877;BME280;35771;48.978;9.294;2022-10-31T00:40:14;99475.34;;;8.67;100.00
49877;BME280;35771;48.978;9.294;2022-10-31T00:42:41;99475.69;;;8.72;100.00
49877;BME280;35771;48.978;9.294;2022-10-31T00:45:08;99450.59;;;8.54;100.00
49877;BME280;35771;48.978;9.294;2022-10-31T00:47:35;99498.34;;;8.55;100.00
49877;BME280;35771;48.978;9.294;2022-10-31T00:50:04;99457.59;;;8.38;100.00
49877;BME280;35771;48.978;9.294;2022-10-31T00:52:31;99459.19;;;8.49;100.00
49877;BME280;35771;48.978;9.294;2022-10-31T00:54:57;99478.91;;;8.67;100.00
49877;BME280;35771;48.978;9.294;2022-10-31T00:57:24;99473.06;;;8.46;100.00
49877;BME280;35771;48.978;9.294;2022-10-31T00:59:51;99459.97;;;8.41;100.00
49877;BME280;35771;48.978;9.294;2022-10-31T01:02:17;99477.69;;;8.54;100.00
49877;BME280;35771;48.978;9.294;2022-10-31T01:04:44;99458.84;;;8.44;100.00
49877;BME280;35771;48.978;9.294;2022-10-31T01:07:12;99458.06;;;8.25;100.00
49877;BME280;35771;48.978;9.294;2022-10-31T01:09:39;99481.97;;;8.38;100.00
49877;BME280;35771;48.978;9.294;2022-10-31T01:12:06;99475.53;;;8.31;100.00
49877;BME280;35771;48.978;9.294;2022-10-31T01:14:33;99461.22;;;8.12;100.00
49877;BME280;35771;48.978;9.294;2022-10-31T01:16:59;99479.09;;;8.40;100.00
49877;BME280;35771;48.978;9.294;2022-10-31T01:19:26;99472.84;;;8.31;100.00
49877;BME280;35771;48.978;9.294;2022-10-31T01:21:54;99475.88;;;8.36;100.00
49877;BME280;35771;48.978;9.294;2022-10-31T01:24:22;99479.66;;;8.43;100.00
49877;BME280;35771;48.978;9.294;2022-10-31T01:26:48;99466.13;;;8.17;100.00
49877;BME280;35771;48.978;9.294;2022-10-31T01:29:15;99451.28;;;8.21;100.00
49877;BME280;35771;48.978;9.294;2022-10-31T01:31:42;99478.59;;;8.36;100.00
49877;BME280;35771;48.978;9.294;2022-10-31T01:34:13;99454.78;;;8.13;100.00
49877;BME280;35771;48.978;9.294;2022-10-31T01:36:39;99458.66;;;8.11;100.00
49877;BME280;35771;48.978;9.294;2022-10-31T01:39:09;99450.38;;;8.12;100.00
49877;BME280;35771;48.978;9.294;2022-10-31T01:41:40;99483.44;;;8.24;100.00
49877;BME280;35771;48.978;9.294;2022-10-31T01:47:07;99480.56;;;8.26;100.00
49877;BME280;35771;48.978;9.294;2022-10-31T01:49:38;99454.56;;;8.07;100.00
49877;BME280;35771;48.978;9.294;2022-10-31T01:52:10;99461.84;;;7.98;100.00
49877;BME280;35771;48.978;9.294;2022-10-31T01:54:40;99473.03;;;8.03;100.00
49877;BME280;35771;48.978;9.294;2022-10-31T01:57:12;99459.44;;;7.95;100.00
49877;BME280;35771;48.978;9.294;2022-10-31T01:59:43;99477.75;;;8.01;100.00
49877;BME280;35771;48.978;9.294;2022-10-31T02:02:11;99454.34;;;7.92;100.00
49877;BME280;35771;48.978;9.294;2022-10-31T02:04:39;99449.78;;;7.92;100.00
49877;BME280;35771;48.978;9.294;2022-10-31T02:07:10;99468.59;;;8.02;100.00
49877;BME280;35771;48.978;9.294;2022-10-31T02:09:39;99464.56;;;8.06;100.00
49877;BME280;35771;48.978;9.294;2022-10-31T02:12:07;99449.63;;;7.94;100.00
49877;BME280;35771;48.978;9.294;2022-10-31T02:14:37;99452.31;;;7.94;100.00
49877;BME280;35771;48.978;9.294;2022-10-31T02:17:04;99458.41;;;7.96;100.00
49877;BME280;35771;48.978;9.294;2022-10-31T02:19:35;99462.31;;;7.93;100.00
49877;BME280;35771;48.978;9.294;2022-10-31T02:22:09;99449.22;;;7.89;100.00
49877;BME280;35771;48.978;9.294;2022-10-31T02:24:46;99467.56;;;7.95;100.00
49877;BME280;35771;48.978;9.294;2022-10-31T02:30:23;99454.81;;;7.87;100.00
49877;BME280;35771;48.978;9.294;2022-10-31T02:33:05;99465.88;;;7.94;100.00
49877;BME280;35771;48.978;9.294;2022-10-31T02:35:40;99473.47;;;7.90;100.00
49877;BME280;35771;48.978;9.294;2022-10-31T02:38:26;99454.25;;;7.75;100.00
49877;BME280;35771;48.978;9.294;2022-10-31T02:41:01;99482.44;;;7.91;100.00
49877;BME280;35771;48.978;9.294;2022-10-31T02:43:42;99460.72;;;7.83;100.00
49877;BME280;35771;48.978;9.294;2022-10-31T02:46:14;99443.91;;;7.71;100.00
49877;BME280;35771;48.978;9.294;2022-10-31T02:48:48;99462.69;;;7.72;100.00
49877;BME280;35771;48.978;9.294;2022-10-31T02:51:17;99474.63;;;7.88;100.00
49877;BME280;35771;48.978;9.294;2022-10-31T02:53:44;99476.44;;;7.79;100.00
49877;BME280;35771;48.978;9.294;2022-10-31T02:56:12;99480.22;;;7.86;100.00
49877;BME280;35771;48.978;9.294;2022-10-31T02:58:42;99485.22;;;7.81;100.00
49877;BME280;35771;48.978;9.294;2022-10-31T03:01:36;99444.84;;;7.61;100.00
49877;BME280;35771;48.978;9.294;2022-10-31T03:07:08;99454.94;;;7.51;100.00
49877;BME280;35771;48.978;9.294;2022-10-31T03:09:42;99454.63;;;7.54;100.00
49877;BME280;35771;48.978;9.294;2022-10-31T03:12:20;99448.25;;;7.64;100.00
49877;BME280;35771;48.978;9.294;2022-10-31T03:14:52;99436.72;;;7.61;100.00
49877;BME280;35771;48.978;9.294;2022-10-31T03:17:26;99462.00;;;7.70;100.00
49877;BME280;35771;48.978;9.294;2022-10-31T03:19:58;99453.88;;;7.44;100.00
49877;BME280;35771;48.978;9.294;2022-10-31T03:22:29;99456.31;;;7.55;100.00
49877;BME280;35771;48.978;9.294;2022-10-31T03:24:57;99428.03;;;7.50;100.00
49877;BME280;35771;48.978;9.294;2022-10-31T03:27:26;99448.91;;;7.57;100.00
49877;BME280;35771;48.978;9.294;2022-10-31T03:29:55;99452.91;;;7.53;100.00
49877;BME280;35771;48.978;9.294;2022-10-31T03:32:27;99453.44;;;7.57;100.00
49877;BME280;35771;48.978;9.294;2022-10-31T03:34:59;99433.00;;;7.54;100.00
49877;BME280;35771;48.978;9.294;2022-10-31T03:37:29;99438.63;;;7.43;100.00
49877;BME280;35771;48.978;9.294;2022-10-31T03:39:57;99472.06;;;7.60;100.00
49877;BME280;35771;48.978;9.294;2022-10-31T03:42:27;99446.75;;;7.43;100.00
49877;BME280;35771;48.978;9.294;2022-10-31T03:44:59;99484.28;;;7.64;100.00
49877;BME280;35771;48.978;9.294;2022-10-31T03:47:28;99475.97;;;7.57;100.00
49877;BME280;35771;48.978;9.294;2022-10-31T03:49:56;99460.72;;;7.30;100.00
49877;BME280;35771;48.978;9.294;2022-10-31T03:52:26;99474.59;;;7.35;100.00
49877;BME280;35771;48.978;9.294;2022-10-31T03:54:57;99461.94;;;7.18;100.00
49877;BME280;35771;48.978;9.294;2022-10-31T03:57:29;99476.00;;;7.21;100.00
49877;BME280;35771;48.978;9.294;2022-10-31T04:00:01;99465.03;;;7.23;100.00
49877;BME280;35771;48.978;9.294;2022-10-31T04:02:32;99474.97;;;7.40;100.00
49877;BME280;35771;48.978;9.294;2022-10-31T04:05:02;99476.81;;;7.40;100.00
49877;BME280;35771;48.978;9.294;2022-10-31T04:07:37;99450.41;;;7.34;100.00
49877;BME280;35771;48.978;9.294;2022-10-31T04:10:08;99479.38;;;7.41;100.00
49877;BME280;35771;48.978;9.294;2022-10-31T04:12:37;99449.19;;;7.28;100.00
49877;BME280;35771;48.978;9.294;2022-10-31T04:15:07;99466.63;;;7.34;100.00
49877;BME280;35771;48.978;9.294;2022-10-31T04:17:37;99450.97;;;7.19;100.00
49877;BME280;35771;48.978;9.294;2022-10-31T04:20:07;99443.16;;;7.16;100.00
49877;BME280;35771;48.978;9.294;2022-10-31T04:22:34;99452.72;;;7.29;100.00
49877;BME280;35771;48.978;9.294;2022-10-31T04:25:01;99450.09;;;7.37;100.00
49877;BME280;35771;48.978;9.294;2022-10-31T04:27:28;99434.72;;;7.19;100.00
49877;BME280;35771;48.978;9.294;2022-10-31T04:29:54;99461.84;;;7.28;100.00
49877;BME280;35771;48.978;9.294;2022-10-31T04:32:20;99432.91;;;7.20;100.00
49877;BME280;35771;48.978;9.294;2022-10-31T04:34:47;99445.38;;;7.21;100.00
49877;BME280;35771;48.978;9.294;2022-10-31T04:37:15;99418.78;;;7.08;100.00
49877;BME280;35771;48.978;9.294;2022-10-31T04:39:41;99448.81;;;7.23;100.00
49877;BME280;35771;48.978;9.294;2022-10-31T04:42:08;99429.91;;;7.05;100.00
49877;BME280;35771;48.978;9.294;2022-10-31T04:44:34;99461.56;;;7.13;100.00
49877;BME280;35771;48.978;9.294;2022-10-31T04:47:01;99419.31;;;6.94;100.00
49877;BME280;35771;48.978;9.294;2022-10-31T04:49:27;99417.06;;;6.89;100.00
49877;BME280;35771;48.978;9.294;2022-10-31T04:51:54;99436.97;;;7.06;100.00
49877;BME280;35771;48.978;9.294;2022-10-31T04:54:22;99430.91;;;6.86;100.00
49877;BME280;35771;48.978;9.294;2022-10-31T04:56:48;99430.28;;;6.92;100.00
49877;BME280;35771;48.978;9.294;2022-10-31T04:59:15;99431.75;;;6.86;100.00
49877;BME280;35771;48.978;9.294;2022-10-31T05:01:41;99434.75;;;6.83;100.00
49877;BME280;35771;48.978;9.294;2022-10-31T05:04:08;99407.81;;;6.73;100.00
49877;BME280;35771;48.978;9.294;2022-10-31T05:06:34;99432.97;;;6.92;100.00
49877;BME280;35771;48.978;9.294;2022-10-31T05:09:01;99408.44;;;6.85;100.00
49877;BME280;35771;48.978;9.294;2022-10-31T05:11:29;99409.38;;;6.94;100.00
49877;BME280;35771;48.978;9.294;2022-10-31T05:13:55;99417.63;;;6.93;100.00
49877;BME280;35771;48.978;9.294;2022-10-31T05:16:22;99411.03;;;6.95;100.00
49877;BME280;35771;48.978;9.294;2022-10-31T05:18:48;99405.03;;;6.83;100.00
49877;BME280;35771;48.978;9.294;2022-10-31T05:21:15;99396.69;;;6.77;100.00
49877;BME280;35771;48.978;9.294;2022-10-31T05:23:42;99394.38;;;6.64;100.00
49877;BME280;35771;48.978;9.294;2022-10-31T05:26:08;99391.81;;;6.62;100.00
49877;BME280;35771;48.978;9.294;2022-10-31T05:28:36;99391.13;;;6.60;100.00
49877;BME280;35771;48.978;9.294;2022-10-31T05:31:03;99417.16;;;6.79;100.00
49877;BME280;35771;48.978;9.294;2022-10-31T05:33:29;99391.75;;;6.72;100.00
49877;BME280;35771;48.978;9.294;2022-10-31T05:35:56;99396.16;;;6.73;100.00
49877;BME280;35771;48.978;9.294;2022-10-31T05:38:22;99403.09;;;6.76;100.00
49877;BME280;35771;48.978;9.294;2022-10-31T05:40:49;99422.25;;;6.82;100.00
49877;BME280;35771;48.978;9.294;2022-10-31T05:43:15;99424.19;;;6.90;100.00
49877;BME280;35771;48.978;9.294;2022-10-31T05:45:43;99382.03;;;6.61;100.00
49877;BME280;35771;48.978;9.294;2022-10-31T05:48:10;99417.16;;;6.79;100.00
49877;BME280;35771;48.978;9.294;2022-10-31T05:50:36;99377.00;;;6.48;100.00
49877;BME280;35771;48.978;9.294;2022-10-31T05:53:04;99399.31;;;6.50;100.00
49877;BME280;35771;48.978;9.294;2022-10-31T05:55:32;99402.72;;;6.52;100.00
49877;BME280;35771;48.978;9.294;2022-10-31T05:57:58;99420.16;;;6.58;100.00
49877;BME280;35771;48.978;9.294;2022-10-31T06:00:25;99397.06;;;6.46;100.00
49877;BME280;35771;48.978;9.294;2022-10-31T06:02:58;99389.72;;;6.38;100.00
49877;BME280;35771;48.978;9.294;2022-10-31T06:05:25;99399.31;;;6.50;100.00
49877;BME280;35771;48.978;9.294;2022-10-31T06:07:52;99384.81;;;6.51;100.00
49877;BME280;35771;48.978;9.294;2022-10-31T06:10:18;99387.59;;;6.42;100.00
49877;BME280;35771;48.978;9.294;2022-10-31T06:12:46;99417.00;;;6.63;100.00
49877;BME280;35771;48.978;9.294;2022-10-31T06:15:13;99392.69;;;6.45;100.00
49877;BME280;35771;48.978;9.294;2022-10-31T06:17:40;99407.97;;;6.54;100.00
49877;BME280;35771;48.978;9.294;2022-10-31T06:20:09;99397.22;;;6.44;100.00
49877;BME280;35771;48.978;9.294;2022-10-31T06:22:35;99382.56;;;6.47;100.00
49877;BME280;35771;48.978;9.294;2022-10-31T06:25:02;99393.22;;;6.48;100.00
49877;BME280;35771;48.978;9.294;2022-10-31T06:27:29;99412.22;;;6.57;100.00
49877;BME280;35771;48.978;9.294;2022-10-31T06:29:55;99396.31;;;6.53;100.00
49877;BME280;35771;48.978;9.294;2022-10-31T06:32:22;99409.22;;;6.60;100.00
49877;BME280;35771;48.978;9.294;2022-10-31T06:34:48;99384.81;;;6.51;100.00
49877;BME280;35771;48.978;9.294;2022-10-31T06:37:16;99409.44;;;6.66;100.00
49877;BME280;35771;48.978;9.294;2022-10-31T06:39:43;99387.59;;;6.60;100.00
49877;BME280;35771;48.978;9.294;2022-10-31T06:42:09;99381.25;;;6.51;100.00
49877;BME280;35771;48.978;9.294;2022-10-31T06:44:36;99391.13;;;6.60;100.00
49877;BME280;35771;48.978;9.294;2022-10-31T06:47:03;99389.75;;;6.56;100.00
49877;BME280;35771;48.978;9.294;2022-10-31T06:49:29;99393.53;;;6.63;100.00
49877;BME280;35771;48.978;9.294;2022-10-31T06:51:56;99384.91;;;6.60;100.00
49877;BME280;35771;48.978;9.294;2022-10-31T06:54:24;99394.63;;;6.70;100.00
49877;BME280;35771;48.978;9.294;2022-10-31T06:56:51;99396.84;;;6.75;100.00
49877;BME280;35771;48.978;9.294;2022-10-31T06:59:17;99411.03;;;6.95;100.00
49877;BME280;35771;48.978;9.294;2022-10-31T07:01:44;99419.09;;;7.05;100.00
49877;BME280;35771;48.978;9.294;2022-10-31T07:04:11;99408.28;;;7.05;100.00
49877;BME280;35771;48.978;9.294;2022-10-31T07:06:38;99426.63;;;7.19;100.00
49877;BME280;35771;48.978;9.294;2022-10-31T07:09:04;99404.50;;;7.24;100.00
49877;BME280;35771;48.978;9.294;2022-10-31T07:11:32;99396.09;;;7.27;100.00
49877;BME280;35771;48.978;9.294;2022-10-31T07:13:59;99424.44;;;7.41;100.00
49877;BME280;35771;48.978;9.294;2022-10-31T07:16:25;99430.22;;;7.46;100.00
49877;BME280;35771;48.978;9.294;2022-10-31T07:18:52;99432.75;;;7.48;100.00
49877;BME280;35771;48.978;9.294;2022-10-31T07:21:19;99421.50;;;7.34;100.00
49877;BME280;35771;48.978;9.294;2022-10-31T07:23:47;99411.00;;;7.31;100.00
49877;BME280;35771;48.978;9.294;2022-10-31T07:26:13;99423.97;;;7.46;100.00
49877;BME280;35771;48.978;9.294;2022-10-31T07:28:41;99416.19;;;7.51;100.00
49877;BME280;35771;48.978;9.294;2022-10-31T07:31:08;99443.31;;;7.59;100.00
49877;BME280;35771;48.978;9.294;2022-10-31T07:33:34;99439.06;;;7.56;100.00
49877;BME280;35771;48.978;9.294;2022-10-31T07:36:01;99433.31;;;7.51;100.00
49877;BME280;35771;48.978;9.294;2022-10-31T07:38:28;99436.56;;;7.63;100.00
49877;BME280;35771;48.978;9.294;2022-10-31T07:40:54;99430.06;;;7.48;100.00
49877;BME280;35771;48.978;9.294;2022-10-31T07:43:21;99444.28;;;7.76;100.00
49877;BME280;35771;48.978;9.294;2022-10-31T07:45:52;99422.28;;;7.71;100.00
49877;BME280;35771;48.978;9.294;2022-10-31T07:48:19;99427.38;;;7.82;100.00
49877;BME280;35771;48.978;9.294;2022-10-31T07:50:46;99407.53;;;7.73;100.00
49877;BME280;35771;48.978;9.294;2022-10-31T07:53:13;99414.69;;;7.83;100.00
49877;BME280;35771;48.978;9.294;2022-10-31T07:55:40;99416.06;;;7.87;100.00
49877;BME280;35771;48.978;9.294;2022-10-31T07:58:09;99426.66;;;8.06;100.00
49877;BME280;35771;48.978;9.294;2022-10-31T08:00:37;99410.41;;;8.06;100.00
49877;BME280;35771;48.978;9.294;2022-10-31T08:03:06;99397.94;;;8.13;100.00
49877;BME280;35771;48.978;9.294;2022-10-31T08:05:34;99388.81;;;8.23;100.00
49877;BME280;35771;48.978;9.294;2022-10-31T08:08:01;99398.00;;;8.30;100.00
49877;BME280;35771;48.978;9.294;2022-10-31T08:10:27;99430.09;;;8.59;100.00
49877;BME280;35771;48.978;9.294;2022-10-31T08:12:58;99412.81;;;8.60;100.00
49877;BME280;35771;48.978;9.294;2022-10-31T08:15:25;99392.84;;;8.61;100.00
49877;BME280;35771;48.978;9.294;2022-10-31T08:17:52;99393.88;;;8.77;100.00
49877;BME280;35771;48.978;9.294;2022-10-31T08:20:20;99378.47;;;8.85;100.00
49877;BME280;35771;48.978;9.294;2022-10-31T08:22:57;99409.31;;;9.01;100.00
49877;BME280;35771;48.978;9.294;2022-10-31T08:25:25;99378.97;;;8.89;100.00
49877;BME280;35771;48.978;9.294;2022-10-31T08:27:52;99393.72;;;9.03;100.00
49877;BME280;35771;48.978;9.294;2022-10-31T08:30:19;99413.72;;;9.35;100.00
49877;BME280;35771;48.978;9.294;2022-10-31T08:32:47;99409.81;;;9.37;100.00
49877;BME280;35771;48.978;9.294;2022-10-31T08:35:14;99392.03;;;9.35;100.00
49877;BME280;35771;48.978;9.294;2022-10-31T08:37:42;99416.91;;;9.55;100.00
49877;BME280;35771;48.978;9.294;2022-10-31T08:40:10;99400.28;;;9.50;100.00
49877;BME280;35771;48.978;9.294;2022-10-31T08:42:38;99390.63;;;9.55;100.00
49877;BME280;35771;48.978;9.294;2022-10-31T08:45:05;99372.50;;;9.56;100.00
49877;BME280;35771;48.978;9.294;2022-10-31T08:47:31;99379.91;;;9.70;100.00
49877;BME280;35771;48.978;9.294;2022-10-31T08:49:58;99387.81;;;9.88;100.00
49877;BME280;35771;48.978;9.294;2022-10-31T08:52:25;99384.94;;;9.90;100.00
49877;BME280;35771;48.978;9.294;2022-10-31T08:54:52;99361.00;;;9.94;100.00
49877;BME280;35771;48.978;9.294;2022-10-31T08:57:19;99374.06;;;9.90;100.00
49877;BME280;35771;48.978;9.294;2022-10-31T08:59:46;99371.59;;;10.12;100.00
49877;BME280;35771;48.978;9.294;2022-10-31T09:02:12;99383.97;;;10.22;100.00
49877;BME280;35771;48.978;9.294;2022-10-31T09:04:39;99365.06;;;10.29;100.00
49877;BME280;35771;48.978;9.294;2022-10-31T09:07:05;99368.56;;;10.46;100.00
49877;BME280;35771;48.978;9.294;2022-10-31T09:09:32;99379.75;;;10.51;100.00
49877;BME280;35771;48.978;9.294;2022-10-31T09:12:00;99369.34;;;10.55;100.00
49877;BME280;35771;48.978;9.294;2022-10-31T09:14:27;99351.38;;;10.54;100.00
49877;BME280;35771;48.978;9.294;2022-10-31T09:16:53;99340.97;;;10.57;100.00
49877;BME280;35771;48.978;9.294;2022-10-31T09:19:20;99346.66;;;10.71;100.00
49877;BME280;35771;48.978;9.294;2022-10-31T09:21:46;99378.91;;;10.97;100.00
49877;BME280;35771;48.978;9.294;2022-10-31T09:24:13;99362.13;;;10.93;100.00
49877;BME280;35771;48.978;9.294;2022-10-31T09:26:39;99356.22;;;11.05;100.00
49877;BME280;35771;48.978;9.294;2022-10-31T09:29:07;99342.44;;;11.06;100.00
49877;BME280;35771;48.978;9.294;2022-10-31T09:31:34;99373.31;;;11.37;100.00
49877;BME280;35771;48.978;9.294;2022-10-31T09:34:02;99363.84;;;11.47;100.00
49877;BME280;35771;48.978;9.294;2022-10-31T09:36:28;99342.69;;;11.34;100.00
49877;BME280;35771;48.978;9.294;2022-10-31T09:38:55;99356.50;;;11.48;100.00
49877;BME280;35771;48.978;9.294;2022-10-31T09:41:26;99342.25;;;11.61;100.00
49877;BME280;35771;48.978;9.294;2022-10-31T09:44:00;99350.78;;;11.73;100.00
49877;BME280;35771;48.978;9.294;2022-10-31T09:46:37;99361.13;;;11.77;100.00
49877;BME280;35771;48.978;9.294;2022-10-31T09:49:28;99362.25;;;12.13;100.00
49877;BME280;35771;48.978;9.294;2022-10-31T09:52:00;99349.75;;;12.18;100.00
49877;BME280;35771;48.978;9.294;2022-10-31T09:54:35;99329.56;;;12.13;100.00
49877;BME280;35771;48.978;9.294;2022-10-31T09:57:05;99342.66;;;12.39;100.00
49877;BME280;35771;48.978;9.294;2022-10-31T09:59:34;99320.41;;;12.20;100.00
49877;BME280;35771;48.978;9.294;2022-10-31T10:02:05;99319.44;;;12.28;100.00
49877;BME280;35771;48.978;9.294;2022-10-31T10:04:40;99322.19;;;12.28;100.00
49877;BME280;35771;48.978;9.294;2022-10-31T10:07:16;99343.56;;;12.46;100.00
49877;BME280;35771;48.978;9.294;2022-10-31T10:09:45;99322.66;;;12.32;100.00
49877;BME280;35771;48.978;9.294;2022-10-31T10:12:16;99345.31;;;12.54;100.00
49877;BME280;35771;48.978;9.294;2022-10-31T10:15:00;99334.22;;;12.55;100.00
49877;BME280;35771;48.978;9.294;2022-10-31T10:17:38;99328.06;;;12.68;100.00
49877;BME280;35771;48.978;9.294;2022-10-31T10:20:18;99319.25;;;12.66;100.00
49877;BME280;35771;48.978;9.294;2022-10-31T10:22:54;99310.72;;;12.76;100.00
49877;BME280;35771;48.978;9.294;2022-10-31T10:25:25;99320.47;;;12.85;100.00
49877;BME280;35771;48.978;9.294;2022-10-31T10:28:04;99352.50;;;12.98;100.00
49877;BME280;35771;48.978;9.294;2022-10-31T10:30:39;99344.34;;;13.05;100.00
49877;BME280;35771;48.978;9.294;2022-10-31T10:33:12;99328.28;;;13.17;100.00
49877;BME280;35771;48.978;9.294;2022-10-31T10:35:44;99315.50;;;13.17;100.00
49877;BME280;35771;48.978;9.294;2022-10-31T10:38:17;99321.97;;;13.38;100.00
49877;BME280;35771;48.978;9.294;2022-10-31T10:40:46;99312.78;;;13.45;100.00
49877;BME280;35771;48.978;9.294;2022-10-31T10:43:20;99337.13;;;13.75;100.00
49877;BME280;35771;48.978;9.294;2022-10-31T10:45:50;99291.25;;;13.64;100.00
49877;BME280;35771;48.978;9.294;2022-10-31T10:48:41;99321.03;;;13.94;100.00
49877;BME280;35771;48.978;9.294;2022-10-31T10:51:18;99313.69;;;13.94;100.00
49877;BME280;35771;48.978;9.294;2022-10-31T10:53:53;99291.63;;;14.03;100.00
49877;BME280;35771;48.978;9.294;2022-10-31T10:56:49;99289.34;;;14.13;100.00
49877;BME280;35771;48.978;9.294;2022-10-31T10:59:19;99293.22;;;14.32;100.00
49877;BME280;35771;48.978;9.294;2022-10-31T11:01:50;99280.34;;;14.19;100.00
49877;BME280;35771;48.978;9.294;2022-10-31T11:04:29;99290.69;;;14.37;100.00
49877;BME280;35771;48.978;9.294;2022-10-31T11:06:57;99273.44;;;14.37;100.00
49877;BME280;35771;48.978;9.294;2022-10-31T11:09:24;99296.41;;;14.56;100.00
49877;BME280;35771;48.978;9.294;2022-10-31T11:11:51;99284.84;;;14.54;100.00
49877;BME280;35771;48.978;9.294;2022-10-31T11:14:18;99281.53;;;14.65;100.00
49877;BME280;35771;48.978;9.294;2022-10-31T11:16:47;99269.75;;;14.71;100.00
49877;BME280;35771;48.978;9.294;2022-10-31T11:19:17;99269.94;;;14.63;100.00
49877;BME280;35771;48.978;9.294;2022-10-31T11:21:47;99274.56;;;14.69;100.00
49877;BME280;35771;48.978;9.294;2022-10-31T11:24:16;99271.63;;;14.84;100.00
49877;BME280;35771;48.978;9.294;2022-10-31T11:26:45;99259.44;;;14.86;100.00
49877;BME280;35771;48.978;9.294;2022-10-31T11:29:15;99249.34;;;14.80;100.00
49877;BME280;35771;48.978;9.294;2022-10-31T11:31:43;99237.13;;;14.83;100.00
49877;BME280;35771;48.978;9.294;2022-10-31T11:34:16;99271.41;;;15.19;100.00
49877;BME280;35771;48.978;9.294;2022-10-31T11:36:47;99232.25;;;14.92;100.00
49877;BME280;35771;48.978;9.294;2022-10-31T11:39:17;99252.06;;;15.07;100.00
49877;BME280;35771;48.978;9.294;2022-10-31T11:41:45;99235.19;;;15.24;100.00
49877;BME280;35771;48.978;9.294;2022-10-31T11:44:16;99244.22;;;15.31;100.00
49877;BME280;35771;48.978;9.294;2022-10-31T11:46:45;99231.38;;;15.31;100.00
49877;BME280;35771;48.978;9.294;2022-10-31T11:49:16;99209.47;;;15.25;100.00
49877;BME280;35771;48.978;9.294;2022-10-31T11:51:49;99235.34;;;15.42;100.00
49877;BME280;35771;48.978;9.294;2022-10-31T11:54:24;99198.47;;;15.45;100.00
49877;BME280;35771;48.978;9.294;2022-10-31T11:56:52;99208.56;;;15.44;100.00
49877;BME280;35771;48.978;9.294;2022-10-31T11:59:24;99221.63;;;15.49;100.00
49877;BME280;35771;48.978;9.294;2022-10-31T12:01:53;99219.69;;;15.63;100.00
49877;BME280;35771;48.978;9.294;2022-10-31T12:04:27;99183.91;;;15.44;100.00
49877;BME280;35771;48.978;9.294;2022-10-31T12:06:57;99201.09;;;15.71;100.00
49877;BME280;35771;48.978;9.294;2022-10-31T12:09:26;99190.16;;;15.65;100.00
49877;BME280;35771;48.978;9.294;2022-10-31T12:12:10;99185.69;;;15.77;100.00
49877;BME280;35771;48.978;9.294;2022-10-31T12:14:46;99182.31;;;15.82;100.00
49877;BME280;35771;48.978;9.294;2022-10-31T12:17:18;99208.41;;;15.98;100.00
49877;BME280;35771;48.978;9.294;2022-10-31T12:19:57;99201.03;;;15.91;100.00
49877;BME280;35771;48.978;9.294;2022-10-31T12:22:40;99207.19;;;15.87;100.00
49877;BME280;35771;48.978;9.294;2022-10-31T12:25:32;99179.59;;;15.75;100.00
49877;BME280;35771;48.978;9.294;2022-10-31T12:28:28;99198.09;;;15.86;100.00
49877;BME280;35771;48.978;9.294;2022-10-31T12:31:12;99174.09;;;15.82;100.00
49877;BME280;35771;48.978;9.294;2022-10-31T12:33:47;99182.25;;;15.95;100.00
49877;BME280;35771;48.978;9.294;2022-10-31T12:36:29;99177.81;;;15.94;100.00
49877;BME280;35771;48.978;9.294;2022-10-31T12:39:16;99150.97;;;16.09;100.00
49877;BME280;35771;48.978;9.294;2022-10-31T12:41:52;99163.56;;;16.17;100.00
49877;BME280;35771;48.978;9.294;2022-10-31T12:44:44;99147.47;;;16.27;100.00
49877;BME280;35771;48.978;9.294;2022-10-31T12:50:25;99141.66;;;16.42;100.00
49877;BME280;35771;48.978;9.294;2022-10-31T12:53:06;99158.81;;;16.56;100.00
49877;BME280;35771;48.978;9.294;2022-10-31T12:55:54;99132.41;;;16.37;100.00
49877;BME280;35771;48.978;9.294;2022-10-31T12:58:26;99136.69;;;16.51;100.00
49877;BME280;35771;48.978;9.294;2022-10-31T13:01:01;99137.47;;;16.58;100.00
49877;BME280;35771;48.978;9.294;2022-10-31T13:03:33;99125.28;;;16.29;100.00
49877;BME280;35771;48.978;9.294;2022-10-31T13:06:07;99133.91;;;16.33;100.00
49877;BME280;35771;48.978;9.294;2022-10-31T13:08:39;99110.66;;;16.10;100.00
49877;BME280;35771;48.978;9.294;2022-10-31T13:11:11;99126.81;;;16.18;100.00
49877;BME280;35771;48.978;9.294;2022-10-31T13:13:42;99117.25;;;16.02;100.00
49877;BME280;35771;48.978;9.294;2022-10-31T13:16:14;99121.19;;;16.13;100.00
49877;BME280;35771;48.978;9.294;2022-10-31T13:18:45;99106.88;;;16.04;100.00
49877;BME280;35771;48.978;9.294;2022-10-31T13:21:18;99102.59;;;16.15;100.00
49877;BME280;35771;48.978;9.294;2022-10-31T13:23:49;99107.75;;;16.30;100.00